sensor_id;sensor_type;location;lat;lon;timestamp;P1;durP1;ratioP1;P2;durP2;ratioP2
35150;SDS011;55720;51.972;4.624;2023-06-14T00:00:57;5.35;;;2.20;;
35150;SDS011;55720;51.972;4.624;2023-06-14T00:03:22;2.50;;;1.47;;
35150;SDS011;55720;51.972;4.624;2023-06-14T00:05:49;1.80;;;1.70;;
35150;SDS011;55720;51.972;4.624;2023-06-14T00:08:15;2.60;;;1.50;;
35150;SDS011;55720;51.972;4.624;2023-06-14T00:10:40;2.25;;;1.52;;
35150;SDS011;55720;51.972;4.624;2023-06-14T00:13:07;2.80;;;1.77;;
35150;SDS011;55720;51.972;4.624;2023-06-14T00:15:32;1.95;;;1.50;;
35150;SDS011;55720;51.972;4.624;2023-06-14T00:17:58;2.28;;;1.95;;
35150;SDS011;55720;51.972;4.624;2023-06-14T00:20:26;3.17;;;2.03;;
35150;SDS011;55720;51.972;4.624;2023-06-14T00:22:52;2.00;;;1.42;;
35150;SDS011;55720;51.972;4.624;2023-06-14T00:25:19;3.92;;;2.20;;
35150;SDS011;55720;51.972;4.624;2023-06-14T00:27:44;3.85;;;2.08;;
35150;SDS011;55720;51.972;4.624;2023-06-14T00:30:09;3.10;;;2.15;;
35150;SDS011;55720;51.972;4.624;2023-06-14T00:32:35;3.08;;;2.30;;
35150;SDS011;55720;51.972;4.624;2023-06-14T00:35:00;3.37;;;2.10;;
35150;SDS011;55720;51.972;4.624;2023-06-14T00:37:25;3.67;;;1.87;;
35150;SDS011;55720;51.972;4.624;2023-06-14T00:39:50;2.67;;;2.28;;
35150;SDS011;55720;51.972;4.624;2023-06-14T00:42:25;3.47;;;2.20;;
35150;SDS011;55720;51.972;4.624;2023-06-14T00:44:50;2.35;;;2.03;;
35150;SDS011;55720;51.972;4.624;2023-06-14T00:47:16;2.40;;;1.70;;
35150;SDS011;55720;51.972;4.624;2023-06-14T00:49:41;2.50;;;1.40;;
35150;SDS011;55720;51.972;4.624;2023-06-14T00:52:06;2.30;;;2.08;;
35150;SDS011;55720;51.972;4.624;2023-06-14T00:54:32;2.42;;;1.98;;
35150;SDS011;55720;51.972;4.624;2023-06-14T00:56:57;2.00;;;1.80;;
35150;SDS011;55720;51.972;4.624;2023-06-14T00:59:22;2.43;;;1.73;;
35150;SDS011;55720;51.972;4.624;2023-06-14T01:01:47;4.22;;;1.80;;
35150;SDS011;55720;51.972;4.624;2023-06-14T01:04:13;3.78;;;1.73;;
35150;SDS011;55720;51.972;4.624;2023-06-14T01:11:33;2.60;;;2.15;;
35150;SDS011;55720;51.972;4.624;2023-06-14T01:14:01;2.53;;;2.13;;
35150;SDS011;55720;51.972;4.624;2023-06-14T01:16:28;1.95;;;1.50;;
35150;SDS011;55720;51.972;4.624;2023-06-14T01:18:54;2.92;;;1.90;;
35150;SDS011;55720;51.972;4.624;2023-06-14T01:21:24;4.97;;;1.58;;
35150;SDS011;55720;51.972;4.624;2023-06-14T01:23:50;3.00;;;1.67;;
35150;SDS011;55720;51.972;4.624;2023-06-14T01:26:24;1.95;;;1.70;;
35150;SDS011;55720;51.972;4.624;2023-06-14T01:28:51;2.30;;;1.70;;
35150;SDS011;55720;51.972;4.624;2023-06-14T01:31:18;2.85;;;1.83;;
35150;SDS011;55720;51.972;4.624;2023-06-14T01:33:44;2.05;;;1.75;;
35150;SDS011;55720;51.972;4.624;2023-06-14T01:36:09;2.75;;;1.20;;
35150;SDS011;55720;51.972;4.624;2023-06-14T01:38:35;2.45;;;1.65;;
35150;SDS011;55720;51.972;4.624;2023-06-14T01:41:01;2.63;;;1.48;;
35150;SDS011;55720;51.972;4.624;2023-06-14T01:43:27;1.27;;;1.17;;
35150;SDS011;55720;51.972;4.624;2023-06-14T01:45:55;2.80;;;1.67;;
35150;SDS011;55720;51.972;4.624;2023-06-14T01:48:21;1.70;;;1.58;;
35150;SDS011;55720;51.972;4.624;2023-06-14T01:50:47;2.47;;;1.23;;
35150;SDS011;55720;51.972;4.624;2023-06-14T01:53:12;1.65;;;1.50;;
35150;SDS011;55720;51.972;4.624;2023-06-14T01:55:38;3.47;;;1.48;;
35150;SDS011;55720;51.972;4.624;2023-06-14T01:58:03;2.53;;;1.58;;
35150;SDS011;55720;51.972;4.624;2023-06-14T02:00:29;1.45;;;1.35;;
35150;SDS011;55720;51.972;4.624;2023-06-14T02:02:55;2.00;;;1.50;;
35150;SDS011;55720;51.972;4.624;2023-06-14T02:05:20;1.58;;;1.48;;
35150;SDS011;55720;51.972;4.624;2023-06-14T02:07:46;1.67;;;1.48;;
35150;SDS011;55720;51.972;4.624;2023-06-14T02:10:11;2.63;;;1.50;;
35150;SDS011;55720;51.972;4.624;2023-06-14T02:12:36;3.00;;;1.88;;
35150;SDS011;55720;51.972;4.624;2023-06-14T02:15:02;1.53;;;1.30;;
35150;SDS011;55720;51.972;4.624;2023-06-14T02:17:28;2.28;;;1.50;;
35150;SDS011;55720;51.972;4.624;2023-06-14T02:19:54;1.92;;;1.52;;
35150;SDS011;55720;51.972;4.624;2023-06-14T02:22:19;3.35;;;1.50;;
35150;SDS011;55720;51.972;4.624;2023-06-14T02:24:46;3.78;;;1.63;;
35150;SDS011;55720;51.972;4.624;2023-06-14T02:27:12;3.22;;;1.70;;
35150;SDS011;55720;51.972;4.624;2023-06-14T02:29:37;1.50;;;1.23;;
35150;SDS011;55720;51.972;4.624;2023-06-14T02:32:03;1.52;;;1.42;;
35150;SDS011;55720;51.972;4.624;2023-06-14T02:34:29;1.35;;;1.25;;
35150;SDS011;55720;51.972;4.624;2023-06-14T02:36:54;1.63;;;1.40;;
35150;SDS011;55720;51.972;4.624;2023-06-14T02:39:20;2.67;;;1.58;;
35150;SDS011;55720;51.972;4.624;2023-06-14T02:41:46;2.38;;;1.63;;
35150;SDS011;55720;51.972;4.624;2023-06-14T02:44:12;4.25;;;1.55;;
35150;SDS011;55720;51.972;4.624;2023-06-14T02:46:38;5.90;;;1.58;;
35150;SDS011;55720;51.972;4.624;2023-06-14T02:49:03;1.55;;;1.35;;
35150;SDS011;55720;51.972;4.624;2023-06-14T02:51:28;6.03;;;1.80;;
35150;SDS011;55720;51.972;4.624;2023-06-14T02:53:53;2.10;;;1.10;;
35150;SDS011;55720;51.972;4.624;2023-06-14T02:56:19;1.63;;;1.53;;
35150;SDS011;55720;51.972;4.624;2023-06-14T02:58:44;3.88;;;1.42;;
35150;SDS011;55720;51.972;4.624;2023-06-14T03:01:10;3.85;;;1.58;;
35150;SDS011;55720;51.972;4.624;2023-06-14T03:03:38;2.35;;;1.75;;
35150;SDS011;55720;51.972;4.624;2023-06-14T03:06:03;1.70;;;1.50;;
35150;SDS011;55720;51.972;4.624;2023-06-14T03:08:30;2.50;;;2.00;;
35150;SDS011;55720;51.972;4.624;2023-06-14T03:10:56;2.05;;;1.80;;
35150;SDS011;55720;51.972;4.624;2023-06-14T03:13:22;2.20;;;1.67;;
35150;SDS011;55720;51.972;4.624;2023-06-14T03:15:48;1.88;;;1.70;;
35150;SDS011;55720;51.972;4.624;2023-06-14T03:18:15;2.00;;;1.75;;
35150;SDS011;55720;51.972;4.624;2023-06-14T03:20:41;2.47;;;1.30;;
35150;SDS011;55720;51.972;4.624;2023-06-14T03:23:07;5.35;;;1.88;;
35150;SDS011;55720;51.972;4.624;2023-06-14T03:25:33;2.95;;;1.98;;
35150;SDS011;55720;51.972;4.624;2023-06-14T03:28:00;2.75;;;1.60;;
35150;SDS011;55720;51.972;4.624;2023-06-14T03:30:25;2.10;;;1.57;;
35150;SDS011;55720;51.972;4.624;2023-06-14T03:32:50;6.37;;;2.07;;
35150;SDS011;55720;51.972;4.624;2023-06-14T03:35:17;3.10;;;1.75;;
35150;SDS011;55720;51.972;4.624;2023-06-14T03:37:43;2.72;;;1.80;;
35150;SDS011;55720;51.972;4.624;2023-06-14T03:40:09;2.97;;;2.00;;
35150;SDS011;55720;51.972;4.624;2023-06-14T03:42:34;2.38;;;2.10;;
35150;SDS011;55720;51.972;4.624;2023-06-14T03:44:59;2.92;;;2.05;;
35150;SDS011;55720;51.972;4.624;2023-06-14T03:47:25;1.77;;;1.67;;
35150;SDS011;55720;51.972;4.624;2023-06-14T03:49:50;4.97;;;2.47;;
35150;SDS011;55720;51.972;4.624;2023-06-14T03:52:15;1.88;;;1.73;;
35150;SDS011;55720;51.972;4.624;2023-06-14T03:54:42;4.40;;;2.15;;
35150;SDS011;55720;51.972;4.624;2023-06-14T03:57:08;2.38;;;1.83;;
35150;SDS011;55720;51.972;4.624;2023-06-14T03:59:34;2.45;;;2.00;;
35150;SDS011;55720;51.972;4.624;2023-06-14T04:02:00;4.05;;;2.03;;
35150;SDS011;55720;51.972;4.624;2023-06-14T04:04:25;5.07;;;1.93;;
35150;SDS011;55720;51.972;4.624;2023-06-14T04:06:54;2.20;;;1.90;;
35150;SDS011;55720;51.972;4.624;2023-06-14T04:09:19;3.15;;;2.05;;
35150;SDS011;55720;51.972;4.624;2023-06-14T04:11:44;3.30;;;1.90;;
35150;SDS011;55720;51.972;4.624;2023-06-14T04:14:09;4.60;;;2.10;;
35150;SDS011;55720;51.972;4.624;2023-06-14T04:16:35;2.50;;;1.67;;
35150;SDS011;55720;51.972;4.624;2023-06-14T04:19:00;1.63;;;1.40;;
35150;SDS011;55720;51.972;4.624;2023-06-14T04:21:25;2.08;;;1.77;;
35150;SDS011;55720;51.972;4.624;2023-06-14T04:23:52;2.90;;;1.77;;
35150;SDS011;55720;51.972;4.624;2023-06-14T04:26:20;3.60;;;1.77;;
35150;SDS011;55720;51.972;4.624;2023-06-14T04:28:46;1.95;;;1.75;;
35150;SDS011;55720;51.972;4.624;2023-06-14T04:31:12;3.03;;;1.63;;
35150;SDS011;55720;51.972;4.624;2023-06-14T04:33:37;1.90;;;1.67;;
35150;SDS011;55720;51.972;4.624;2023-06-14T04:36:10;2.20;;;1.60;;
35150;SDS011;55720;51.972;4.624;2023-06-14T04:38:37;1.70;;;1.60;;
35150;SDS011;55720;51.972;4.624;2023-06-14T04:41:03;1.83;;;1.40;;
35150;SDS011;55720;51.972;4.624;2023-06-14T04:43:28;3.20;;;1.73;;
35150;SDS011;55720;51.972;4.624;2023-06-14T04:45:53;1.60;;;1.27;;
35150;SDS011;55720;51.972;4.624;2023-06-14T04:48:21;1.85;;;1.65;;
35150;SDS011;55720;51.972;4.624;2023-06-14T04:50:47;2.40;;;1.30;;
35150;SDS011;55720;51.972;4.624;2023-06-14T04:53:12;2.45;;;1.67;;
35150;SDS011;55720;51.972;4.624;2023-06-14T04:55:38;1.33;;;1.23;;
35150;SDS011;55720;51.972;4.624;2023-06-14T04:58:03;3.10;;;1.20;;
35150;SDS011;55720;51.972;4.624;2023-06-14T05:00:29;1.42;;;1.33;;
35150;SDS011;55720;51.972;4.624;2023-06-14T05:02:55;1.10;;;1.00;;
35150;SDS011;55720;51.972;4.624;2023-06-14T05:05:22;3.85;;;1.00;;
35150;SDS011;55720;51.972;4.624;2023-06-14T05:07:47;1.90;;;1.40;;
35150;SDS011;55720;51.972;4.624;2023-06-14T05:10:12;1.50;;;1.20;;
35150;SDS011;55720;51.972;4.624;2023-06-14T05:12:37;1.53;;;1.40;;
35150;SDS011;55720;51.972;4.624;2023-06-14T05:15:03;1.83;;;1.23;;
35150;SDS011;55720;51.972;4.624;2023-06-14T05:17:28;1.63;;;1.50;;
35150;SDS011;55720;51.972;4.624;2023-06-14T05:19:54;2.75;;;1.30;;
35150;SDS011;55720;51.972;4.624;2023-06-14T05:22:20;1.50;;;1.38;;
35150;SDS011;55720;51.972;4.624;2023-06-14T05:24:46;2.38;;;1.42;;
35150;SDS011;55720;51.972;4.624;2023-06-14T05:27:13;2.53;;;1.60;;
35150;SDS011;55720;51.972;4.624;2023-06-14T05:29:38;2.70;;;1.33;;
35150;SDS011;55720;51.972;4.624;2023-06-14T05:32:03;1.50;;;1.40;;
35150;SDS011;55720;51.972;4.624;2023-06-14T05:34:29;4.28;;;1.13;;
35150;SDS011;55720;51.972;4.624;2023-06-14T05:36:54;1.63;;;1.20;;
35150;SDS011;55720;51.972;4.624;2023-06-14T05:39:20;1.30;;;1.20;;
35150;SDS011;55720;51.972;4.624;2023-06-14T05:41:45;6.40;;;1.50;;
35150;SDS011;55720;51.972;4.624;2023-06-14T05:44:10;2.00;;;1.10;;
35150;SDS011;55720;51.972;4.624;2023-06-14T05:46:36;1.40;;;1.23;;
35150;SDS011;55720;51.972;4.624;2023-06-14T05:49:01;2.20;;;1.37;;
35150;SDS011;55720;51.972;4.624;2023-06-14T05:51:26;1.67;;;1.00;;
35150;SDS011;55720;51.972;4.624;2023-06-14T05:53:51;3.03;;;1.40;;
35150;SDS011;55720;51.972;4.624;2023-06-14T05:56:17;1.42;;;1.15;;
35150;SDS011;55720;51.972;4.624;2023-06-14T05:58:43;2.92;;;1.90;;
35150;SDS011;55720;51.972;4.624;2023-06-14T06:01:08;3.35;;;1.50;;
35150;SDS011;55720;51.972;4.624;2023-06-14T06:03:33;4.55;;;1.30;;
35150;SDS011;55720;51.972;4.624;2023-06-14T06:05:59;2.35;;;1.23;;
35150;SDS011;55720;51.972;4.624;2023-06-14T06:08:24;2.00;;;1.27;;
35150;SDS011;55720;51.972;4.624;2023-06-14T06:10:49;1.73;;;1.60;;
35150;SDS011;55720;51.972;4.624;2023-06-14T06:13:14;2.57;;;1.20;;
35150;SDS011;55720;51.972;4.624;2023-06-14T06:15:40;1.63;;;1.40;;
35150;SDS011;55720;51.972;4.624;2023-06-14T06:18:05;2.93;;;1.50;;
35150;SDS011;55720;51.972;4.624;2023-06-14T06:20:31;1.65;;;1.10;;
35150;SDS011;55720;51.972;4.624;2023-06-14T06:22:57;1.30;;;1.17;;
35150;SDS011;55720;51.972;4.624;2023-06-14T06:25:22;1.63;;;1.52;;
35150;SDS011;55720;51.972;4.624;2023-06-14T06:27:48;4.88;;;1.55;;
35150;SDS011;55720;51.972;4.624;2023-06-14T06:30:13;2.17;;;1.20;;
35150;SDS011;55720;51.972;4.624;2023-06-14T06:32:39;1.42;;;1.30;;
35150;SDS011;55720;51.972;4.624;2023-06-14T06:35:04;5.60;;;1.40;;
35150;SDS011;55720;51.972;4.624;2023-06-14T06:37:32;3.08;;;1.60;;
35150;SDS011;55720;51.972;4.624;2023-06-14T06:39:57;1.50;;;1.40;;
35150;SDS011;55720;51.972;4.624;2023-06-14T06:42:22;5.07;;;1.50;;
35150;SDS011;55720;51.972;4.624;2023-06-14T06:44:47;1.47;;;1.33;;
35150;SDS011;55720;51.972;4.624;2023-06-14T06:47:13;1.87;;;1.73;;
35150;SDS011;55720;51.972;4.624;2023-06-14T06:49:38;5.63;;;1.13;;
35150;SDS011;55720;51.972;4.624;2023-06-14T06:52:04;1.85;;;1.35;;
35150;SDS011;55720;51.972;4.624;2023-06-14T06:54:30;17.65;;;1.27;;
35150;SDS011;55720;51.972;4.624;2023-06-14T06:56:55;2.17;;;1.45;;
35150;SDS011;55720;51.972;4.624;2023-06-14T06:59:20;3.13;;;1.27;;
35150;SDS011;55720;51.972;4.624;2023-06-14T07:01:46;2.30;;;1.27;;
35150;SDS011;55720;51.972;4.624;2023-06-14T07:04:11;2.88;;;1.30;;
35150;SDS011;55720;51.972;4.624;2023-06-14T07:06:36;2.40;;;1.40;;
35150;SDS011;55720;51.972;4.624;2023-06-14T07:09:02;1.25;;;1.15;;
35150;SDS011;55720;51.972;4.624;2023-06-14T07:11:29;1.13;;;1.02;;
35150;SDS011;55720;51.972;4.624;2023-06-14T07:13:55;1.20;;;1.10;;
35150;SDS011;55720;51.972;4.624;2023-06-14T07:16:20;3.63;;;1.57;;
35150;SDS011;55720;51.972;4.624;2023-06-14T07:18:45;1.70;;;1.50;;
35150;SDS011;55720;51.972;4.624;2023-06-14T07:21:11;1.43;;;1.30;;
35150;SDS011;55720;51.972;4.624;2023-06-14T07:23:36;1.47;;;1.37;;
35150;SDS011;55720;51.972;4.624;2023-06-14T07:26:01;4.30;;;1.33;;
35150;SDS011;55720;51.972;4.624;2023-06-14T07:28:26;1.47;;;1.37;;
35150;SDS011;55720;51.972;4.624;2023-06-14T07:30:51;1.40;;;1.20;;
35150;SDS011;55720;51.972;4.624;2023-06-14T07:33:17;2.30;;;1.30;;
35150;SDS011;55720;51.972;4.624;2023-06-14T07:35:42;1.65;;;1.48;;
35150;SDS011;55720;51.972;4.624;2023-06-14T07:38:07;2.33;;;1.60;;
35150;SDS011;55720;51.972;4.624;2023-06-14T07:40:33;1.70;;;1.60;;
35150;SDS011;55720;51.972;4.624;2023-06-14T07:42:58;1.60;;;1.43;;
35150;SDS011;55720;51.972;4.624;2023-06-14T07:45:23;2.57;;;1.40;;
35150;SDS011;55720;51.972;4.624;2023-06-14T07:47:48;3.40;;;1.60;;
35150;SDS011;55720;51.972;4.624;2023-06-14T07:50:13;1.50;;;1.30;;
35150;SDS011;55720;51.972;4.624;2023-06-14T07:52:39;4.30;;;1.67;;
35150;SDS011;55720;51.972;4.624;2023-06-14T07:55:04;2.10;;;1.60;;
35150;SDS011;55720;51.972;4.624;2023-06-14T07:57:30;1.27;;;1.23;;
35150;SDS011;55720;51.972;4.624;2023-06-14T07:59:55;3.17;;;1.47;;
35150;SDS011;55720;51.972;4.624;2023-06-14T08:02:20;1.87;;;1.27;;
35150;SDS011;55720;51.972;4.624;2023-06-14T08:04:46;1.63;;;1.30;;
35150;SDS011;55720;51.972;4.624;2023-06-14T08:07:13;3.28;;;1.38;;
35150;SDS011;55720;51.972;4.624;2023-06-14T08:09:40;3.70;;;1.45;;
35150;SDS011;55720;51.972;4.624;2023-06-14T08:12:06;7.00;;;1.67;;
35150;SDS011;55720;51.972;4.624;2023-06-14T08:14:38;12.85;;;2.20;;
35150;SDS011;55720;51.972;4.624;2023-06-14T08:17:04;2.13;;;1.42;;
35150;SDS011;55720;51.972;4.624;2023-06-14T08:19:29;4.15;;;1.40;;
35150;SDS011;55720;51.972;4.624;2023-06-14T08:21:55;1.75;;;1.42;;
35150;SDS011;55720;51.972;4.624;2023-06-14T08:24:21;4.03;;;1.30;;
35150;SDS011;55720;51.972;4.624;2023-06-14T08:26:49;2.22;;;1.52;;
35150;SDS011;55720;51.972;4.624;2023-06-14T08:29:15;1.70;;;1.33;;
35150;SDS011;55720;51.972;4.624;2023-06-14T08:31:40;1.27;;;1.10;;
35150;SDS011;55720;51.972;4.624;2023-06-14T08:34:05;1.40;;;1.30;;
35150;SDS011;55720;51.972;4.624;2023-06-14T08:36:31;2.33;;;1.60;;
35150;SDS011;55720;51.972;4.624;2023-06-14T08:38:56;2.15;;;1.33;;
35150;SDS011;55720;51.972;4.624;2023-06-14T08:41:21;1.37;;;1.20;;
35150;SDS011;55720;51.972;4.624;2023-06-14T08:43:48;3.30;;;1.50;;
35150;SDS011;55720;51.972;4.624;2023-06-14T08:46:14;1.55;;;1.30;;
35150;SDS011;55720;51.972;4.624;2023-06-14T08:48:44;2.78;;;1.38;;
35150;SDS011;55720;51.972;4.624;2023-06-14T08:51:10;2.83;;;1.20;;
35150;SDS011;55720;51.972;4.624;2023-06-14T08:53:36;1.40;;;1.30;;
35150;SDS011;55720;51.972;4.624;2023-06-14T08:56:06;2.83;;;1.20;;
35150;SDS011;55720;51.972;4.624;2023-06-14T08:58:39;2.25;;;0.98;;
35150;SDS011;55720;51.972;4.624;2023-06-14T09:01:08;1.33;;;1.23;;
35150;SDS011;55720;51.972;4.624;2023-06-14T09:03:37;1.42;;;0.93;;
35150;SDS011;55720;51.972;4.624;2023-06-14T09:06:06;4.47;;;1.50;;
35150;SDS011;55720;51.972;4.624;2023-06-14T09:08:33;2.30;;;1.40;;
35150;SDS011;55720;51.972;4.624;2023-06-14T09:11:00;2.47;;;1.30;;
35150;SDS011;55720;51.972;4.624;2023-06-14T09:13:26;4.15;;;1.30;;
35150;SDS011;55720;51.972;4.624;2023-06-14T09:15:51;2.28;;;1.30;;
35150;SDS011;55720;51.972;4.624;2023-06-14T09:18:17;1.13;;;1.08;;
35150;SDS011;55720;51.972;4.624;2023-06-14T09:20:42;1.50;;;1.15;;
35150;SDS011;55720;51.972;4.624;2023-06-14T09:23:08;1.40;;;1.20;;
35150;SDS011;55720;51.972;4.624;2023-06-14T09:25:41;1.13;;;1.07;;
35150;SDS011;55720;51.972;4.624;2023-06-14T09:28:07;3.65;;;1.20;;
35150;SDS011;55720;51.972;4.624;2023-06-14T09:30:33;1.63;;;1.13;;
35150;SDS011;55720;51.972;4.624;2023-06-14T09:32:58;2.67;;;1.13;;
35150;SDS011;55720;51.972;4.624;2023-06-14T09:35:23;1.25;;;1.17;;
35150;SDS011;55720;51.972;4.624;2023-06-14T09:37:49;1.83;;;1.37;;
35150;SDS011;55720;51.972;4.624;2023-06-14T09:40:17;1.33;;;1.23;;
35150;SDS011;55720;51.972;4.624;2023-06-14T09:42:45;2.15;;;1.00;;
35150;SDS011;55720;51.972;4.624;2023-06-14T09:45:10;2.47;;;1.20;;
35150;SDS011;55720;51.972;4.624;2023-06-14T09:47:37;0.98;;;0.98;;
35150;SDS011;55720;51.972;4.624;2023-06-14T09:50:04;2.53;;;1.15;;
35150;SDS011;55720;51.972;4.624;2023-06-14T09:52:29;1.27;;;1.15;;
35150;SDS011;55720;51.972;4.624;2023-06-14T09:54:55;1.73;;;0.98;;
35150;SDS011;55720;51.972;4.624;2023-06-14T09:57:21;0.70;;;0.70;;
35150;SDS011;55720;51.972;4.624;2023-06-14T09:59:47;2.28;;;0.85;;
35150;SDS011;55720;51.972;4.624;2023-06-14T10:02:22;1.05;;;0.80;;
35150;SDS011;55720;51.972;4.624;2023-06-14T10:04:56;1.77;;;1.00;;
35150;SDS011;55720;51.972;4.624;2023-06-14T10:07:25;1.20;;;0.90;;
35150;SDS011;55720;51.972;4.624;2023-06-14T10:09:52;1.08;;;0.85;;
35150;SDS011;55720;51.972;4.624;2023-06-14T10:12:18;1.00;;;0.80;;
35150;SDS011;55720;51.972;4.624;2023-06-14T10:14:47;1.13;;;0.95;;
35150;SDS011;55720;51.972;4.624;2023-06-14T10:17:16;1.20;;;1.10;;
35150;SDS011;55720;51.972;4.624;2023-06-14T10:19:47;1.63;;;0.98;;
35150;SDS011;55720;51.972;4.624;2023-06-14T10:24:44;1.33;;;0.80;;
35150;SDS011;55720;51.972;4.624;2023-06-14T10:27:11;0.60;;;0.60;;
35150;SDS011;55720;51.972;4.624;2023-06-14T10:32:18;0.98;;;0.80;;
35150;SDS011;55720;51.972;4.624;2023-06-14T10:34:44;0.70;;;0.60;;
35150;SDS011;55720;51.972;4.624;2023-06-14T10:37:13;0.80;;;0.80;;
35150;SDS011;55720;51.972;4.624;2023-06-14T10:39:42;1.87;;;0.87;;
35150;SDS011;55720;51.972;4.624;2023-06-14T10:42:08;1.67;;;1.02;;
35150;SDS011;55720;51.972;4.624;2023-06-14T10:44:43;0.70;;;0.70;;
35150;SDS011;55720;51.972;4.624;2023-06-14T10:47:10;0.90;;;0.57;;
35150;SDS011;55720;51.972;4.624;2023-06-14T10:49:36;1.88;;;0.88;;
35150;SDS011;55720;51.972;4.624;2023-06-14T10:52:07;2.20;;;0.90;;
35150;SDS011;55720;51.972;4.624;2023-06-14T10:54:34;2.05;;;0.90;;
35150;SDS011;55720;51.972;4.624;2023-06-14T10:56:59;1.27;;;0.90;;
35150;SDS011;55720;51.972;4.624;2023-06-14T10:59:24;6.28;;;0.82;;
35150;SDS011;55720;51.972;4.624;2023-06-14T11:10:10;1.30;;;0.90;;
35150;SDS011;55720;51.972;4.624;2023-06-14T11:12:39;1.63;;;0.75;;
35150;SDS011;55720;51.972;4.624;2023-06-14T11:15:07;0.68;;;0.68;;
35150;SDS011;55720;51.972;4.624;2023-06-14T11:17:33;1.00;;;0.90;;
35150;SDS011;55720;51.972;4.624;2023-06-14T11:20:11;0.85;;;0.85;;
35150;SDS011;55720;51.972;4.624;2023-06-14T11:22:44;0.93;;;0.80;;
35150;SDS011;55720;51.972;4.624;2023-06-14T11:25:11;0.90;;;0.73;;
35150;SDS011;55720;51.972;4.624;2023-06-14T11:27:36;0.90;;;0.90;;
35150;SDS011;55720;51.972;4.624;2023-06-14T11:30:01;1.60;;;0.60;;
35150;SDS011;55720;51.972;4.624;2023-06-14T11:32:27;1.42;;;0.70;;
35150;SDS011;55720;51.972;4.624;2023-06-14T11:34:52;1.40;;;0.88;;
35150;SDS011;55720;51.972;4.624;2023-06-14T11:37:17;1.90;;;1.00;;
35150;SDS011;55720;51.972;4.624;2023-06-14T11:39:43;0.93;;;0.60;;
35150;SDS011;55720;51.972;4.624;2023-06-14T11:42:08;1.40;;;0.85;;
35150;SDS011;55720;51.972;4.624;2023-06-14T11:44:38;0.85;;;0.70;;
35150;SDS011;55720;51.972;4.624;2023-06-14T11:47:03;1.30;;;0.60;;
35150;SDS011;55720;51.972;4.624;2023-06-14T11:49:28;0.80;;;0.60;;
35150;SDS011;55720;51.972;4.624;2023-06-14T11:51:54;0.60;;;0.60;;
35150;SDS011;55720;51.972;4.624;2023-06-14T11:54:19;0.65;;;0.60;;
35150;SDS011;55720;51.972;4.624;2023-06-14T11:56:44;0.80;;;0.70;;
35150;SDS011;55720;51.972;4.624;2023-06-14T11:59:09;0.70;;;0.70;;
35150;SDS011;55720;51.972;4.624;2023-06-14T12:01:35;3.08;;;0.80;;
35150;SDS011;55720;51.972;4.624;2023-06-14T12:04:01;1.85;;;0.50;;
35150;SDS011;55720;51.972;4.624;2023-06-14T12:06:29;0.68;;;0.60;;
35150;SDS011;55720;51.972;4.624;2023-06-14T12:08:57;0.70;;;0.57;;
35150;SDS011;55720;51.972;4.624;2023-06-14T12:11:23;0.90;;;0.80;;
35150;SDS011;55720;51.972;4.624;2023-06-14T12:13:48;0.60;;;0.50;;
35150;SDS011;55720;51.972;4.624;2023-06-14T12:16:13;0.70;;;0.70;;
35150;SDS011;55720;51.972;4.624;2023-06-14T12:18:39;2.37;;;0.70;;
35150;SDS011;55720;51.972;4.624;2023-06-14T12:21:06;0.60;;;0.55;;
35150;SDS011;55720;51.972;4.624;2023-06-14T12:23:47;0.88;;;0.70;;
35150;SDS011;55720;51.972;4.624;2023-06-14T12:26:18;0.70;;;0.70;;
35150;SDS011;55720;51.972;4.624;2023-06-14T12:28:44;0.77;;;0.70;;
35150;SDS011;55720;51.972;4.624;2023-06-14T12:31:14;4.65;;;0.70;;
35150;SDS011;55720;51.972;4.624;2023-06-14T12:33:39;0.95;;;0.85;;
35150;SDS011;55720;51.972;4.624;2023-06-14T12:36:06;2.03;;;0.75;;
35150;SDS011;55720;51.972;4.624;2023-06-14T12:38:32;0.68;;;0.68;;
35150;SDS011;55720;51.972;4.624;2023-06-14T12:40:57;0.68;;;0.68;;
35150;SDS011;55720;51.972;4.624;2023-06-14T12:43:23;1.07;;;0.83;;
35150;SDS011;55720;51.972;4.624;2023-06-14T12:45:48;0.83;;;0.77;;
35150;SDS011;55720;51.972;4.624;2023-06-14T12:48:13;0.63;;;0.57;;
35150;SDS011;55720;51.972;4.624;2023-06-14T12:50:38;1.92;;;1.00;;
35150;SDS011;55720;51.972;4.624;2023-06-14T12:53:03;0.77;;;0.67;;
35150;SDS011;55720;51.972;4.624;2023-06-14T12:55:29;1.07;;;0.60;;
35150;SDS011;55720;51.972;4.624;2023-06-14T12:57:54;1.70;;;0.80;;
35150;SDS011;55720;51.972;4.624;2023-06-14T13:00:19;0.97;;;0.77;;
35150;SDS011;55720;51.972;4.624;2023-06-14T13:02:46;0.90;;;0.80;;
35150;SDS011;55720;51.972;4.624;2023-06-14T13:05:11;2.30;;;0.67;;
35150;SDS011;55720;51.972;4.624;2023-06-14T13:07:36;2.33;;;0.70;;
35150;SDS011;55720;51.972;4.624;2023-06-14T13:10:02;1.73;;;0.70;;
35150;SDS011;55720;51.972;4.624;2023-06-14T13:12:28;0.63;;;0.50;;
35150;SDS011;55720;51.972;4.624;2023-06-14T13:14:53;0.60;;;0.57;;
35150;SDS011;55720;51.972;4.624;2023-06-14T13:17:18;1.40;;;0.90;;
35150;SDS011;55720;51.972;4.624;2023-06-14T13:19:43;0.77;;;0.63;;
35150;SDS011;55720;51.972;4.624;2023-06-14T13:22:09;1.03;;;0.70;;
35150;SDS011;55720;51.972;4.624;2023-06-14T13:24:34;2.08;;;0.65;;
35150;SDS011;55720;51.972;4.624;2023-06-14T13:26:59;1.07;;;0.60;;
35150;SDS011;55720;51.972;4.624;2023-06-14T13:29:25;0.65;;;0.57;;
35150;SDS011;55720;51.972;4.624;2023-06-14T13:31:51;0.70;;;0.70;;
35150;SDS011;55720;51.972;4.624;2023-06-14T13:34:16;0.60;;;0.60;;
35150;SDS011;55720;51.972;4.624;2023-06-14T13:36:41;0.60;;;0.60;;
35150;SDS011;55720;51.972;4.624;2023-06-14T13:39:06;0.80;;;0.70;;
35150;SDS011;55720;51.972;4.624;2023-06-14T13:41:32;2.57;;;0.63;;
35150;SDS011;55720;51.972;4.624;2023-06-14T13:43:59;1.42;;;0.90;;
35150;SDS011;55720;51.972;4.624;2023-06-14T13:46:24;0.60;;;0.60;;
35150;SDS011;55720;51.972;4.624;2023-06-14T13:48:50;0.80;;;0.60;;
35150;SDS011;55720;51.972;4.624;2023-06-14T13:51:15;0.50;;;0.50;;
35150;SDS011;55720;51.972;4.624;2023-06-14T13:53:42;3.30;;;0.70;;
35150;SDS011;55720;51.972;4.624;2023-06-14T13:56:08;0.75;;;0.75;;
35150;SDS011;55720;51.972;4.624;2023-06-14T13:58:33;1.67;;;0.80;;
35150;SDS011;55720;51.972;4.624;2023-06-14T14:00:58;0.63;;;0.57;;
35150;SDS011;55720;51.972;4.624;2023-06-14T14:03:24;1.15;;;0.80;;
35150;SDS011;55720;51.972;4.624;2023-06-14T14:05:50;1.10;;;1.00;;
35150;SDS011;55720;51.972;4.624;2023-06-14T14:08:15;0.60;;;0.60;;
35150;SDS011;55720;51.972;4.624;2023-06-14T14:10:40;2.40;;;0.80;;
35150;SDS011;55720;51.972;4.624;2023-06-14T14:13:06;0.70;;;0.70;;
35150;SDS011;55720;51.972;4.624;2023-06-14T14:15:31;2.30;;;0.60;;
35150;SDS011;55720;51.972;4.624;2023-06-14T14:17:59;0.98;;;0.80;;
35150;SDS011;55720;51.972;4.624;2023-06-14T14:20:25;1.17;;;0.93;;
35150;SDS011;55720;51.972;4.624;2023-06-14T14:22:50;0.87;;;0.83;;
35150;SDS011;55720;51.972;4.624;2023-06-14T14:25:15;0.70;;;0.70;;
35150;SDS011;55720;51.972;4.624;2023-06-14T14:27:41;0.70;;;0.50;;
35150;SDS011;55720;51.972;4.624;2023-06-14T14:30:06;0.90;;;0.70;;
35150;SDS011;55720;51.972;4.624;2023-06-14T14:32:31;0.93;;;0.75;;
35150;SDS011;55720;51.972;4.624;2023-06-14T14:34:57;4.73;;;0.70;;
35150;SDS011;55720;51.972;4.624;2023-06-14T14:37:22;0.50;;;0.50;;
35150;SDS011;55720;51.972;4.624;2023-06-14T14:39:47;1.00;;;0.70;;
35150;SDS011;55720;51.972;4.624;2023-06-14T14:42:12;0.63;;;0.63;;
35150;SDS011;55720;51.972;4.624;2023-06-14T14:44:38;0.70;;;0.70;;
35150;SDS011;55720;51.972;4.624;2023-06-14T14:47:03;0.80;;;0.60;;
35150;SDS011;55720;51.972;4.624;2023-06-14T14:49:30;0.93;;;0.75;;
35150;SDS011;55720;51.972;4.624;2023-06-14T14:51:56;2.50;;;0.60;;
35150;SDS011;55720;51.972;4.624;2023-06-14T14:54:21;0.93;;;0.60;;
35150;SDS011;55720;51.972;4.624;2023-06-14T14:56:46;0.60;;;0.55;;
35150;SDS011;55720;51.972;4.624;2023-06-14T14:59:12;2.67;;;0.67;;